AirNav   Duncan Aviation - Near you to keep you flying
 
 1410 users online  

NV22 Red Rock Ranch Airport
Elko, Nevada, USA

GOING TO ELKO?


FAA INFORMATION EFFECTIVE 02 DECEMBER 2021

Location

FAA Identifier: NV22
Lat/Long: 40-18-45.7330N 115-53-48.2280W
40-18.762217N 115-53.803800W
40.3127036,-115.8967300
(estimated)
Elevation: 6158 ft. / 1877 m (estimated)
Variation: 16E (1985)
From city: 36 miles S of ELKO, NV
Time zone: UTC -8 (UTC -7 during Daylight Saving Time)
Zip code: 89801

Airport Operations

Airport use: Private use. Permission required prior to landing
Activation date: 02/1991
Control tower: no
ARTCC: SALT LAKE CITY CENTER
FSS: RENO FLIGHT SERVICE STATION
Attendance: UNATNDD
Segmented circle: no

Nearby radio navigation aids

VOR radial/distance  VOR name  Freq  Var
BQUr176/27.5BULLION VOR/DME114.5017E

Airport Services

Runway Information

Runway 4/22

Dimensions: 1800 x 40 ft. / 549 x 12 m
Surface: gravel
RUNWAY 4  RUNWAY 22
Traffic pattern: leftleft

Airport Ownership and Management from official FAA records

Ownership: Privately-owned
Owner: MATT OTTO
RED ROCK RANCH
JIGGS, NV 89827-0021
Phone 516-536-3295
Manager: MATT OTTO
P.O. BOX 264
WEST HEMPSTEAD, NY 11552
Phone 516-536-3295

Additional Remarks

FOR CD CTC SALT LAKE ARTCC AT 801-320-2568.

Instrument Procedures

There are no published instrument procedures at NV22.

Some nearby airports with instrument procedures:

KEKO - Elko Regional Airport (31 nm N)
05U - Eureka Airport (43 nm S)
KBAM - Battle Mountain Airport (48 nm W)
KELY - Ely Airport/Yelland Field (78 nm SE)
KENV - Wendover Airport (89 nm E)
 
Loc | Ops | Rwys | IFR | FBO | Links
Com | Nav | Svcs | Stats | Notes
Area around NV22 (Red Rock Ranch Airport)
 
Road maps at: MapQuest Bing Google
 
Aerial photo
No photo
 
Sectional chart

 
Airport distance calculator
Flying to Red Rock Ranch Airport? Find the distance to fly.

From to NV22

Sunrise and sunset
Times for 03-Dec-2021
 Local
(UTC-8)
 Zulu
(UTC)
Morning civil twilight06:2014:20
Sunrise06:5014:50
Sunset16:1700:17
Evening civil twilight16:4700:47

Current date and time
Zulu (UTC)  03-Dec-2021 16:49:26
Local (UTC-8)  03-Dec-2021 08:49:26
 
METAR
KEKO 
32nm N 
031556Z AUTO 14003KT 10SM CLR M05/M08 A3028 RMK AO2 SLP282 T10501078
K05U 
43nm S 
031635Z AUTO 22007KT 10SM CLR 02/M09 A3028 RMK A01
KP68 
43nm S 
031553Z AUTO 20005KT M02/M09 A3026 RMK AO1 SLP260 T10171094
KBAM 
49nm W 
031635Z AUTO 13003KT 10SM CLR M02/M06 A3027 RMK AO1
TAF
KEKO 
32nm N 
031120Z 0312/0412 VRB03KT P6SM SKC
NOTAMs
Click for the latest NOTAMs
NOTAMs are issued by the DoD/FAA and will open in a separate window not controlled by AirNav.

 

 
 

Would you like to see your business listed on this page?

 If your business provides an interesting product or service to pilots, flight crews, aircraft, or users of the Red Rock Ranch Airport, you should consider listing it here.  To start the listing process, click on the button below
 
Add a business
 

Other Pages about Red Rock Ranch Airport

Update a link
 
Copyright © AirNav, LLC. All rights reserved. Privacy Policy  Contact